sensor_id;sensor_type;location;lat;lon;timestamp;pressure;altitude;pressure_sealevel;temperature;humidity
50852;BME280;43953;45.508;-122.806;2023-12-07T00:00:09;99919.75;;;22.35;50.53
50852;BME280;43953;45.508;-122.806;2023-12-07T00:00:41;99925.56;;;22.33;50.38
50852;BME280;43953;45.508;-122.806;2023-12-07T00:01:13;99927.47;;;22.33;50.40
50852;BME280;43953;45.508;-122.806;2023-12-07T00:01:45;99929.19;;;22.29;50.46
50852;BME280;43953;45.508;-122.806;2023-12-07T00:02:16;99929.19;;;22.29;50.57
50852;BME280;43953;45.508;-122.806;2023-12-07T00:02:48;99930.31;;;22.28;50.69
50852;BME280;43953;45.508;-122.806;2023-12-07T00:03:20;99935.50;;;22.29;51.16
50852;BME280;43953;45.508;-122.806;2023-12-07T00:03:54;99935.69;;;22.33;50.62
50852;BME280;43953;45.508;-122.806;2023-12-07T00:04:25;99932.56;;;22.39;50.72
50852;BME280;43953;45.508;-122.806;2023-12-07T00:04:57;99936.59;;;22.42;50.44
50852;BME280;43953;45.508;-122.806;2023-12-07T00:05:32;99937.72;;;22.41;50.50
50852;BME280;43953;45.508;-122.806;2023-12-07T00:06:04;99937.19;;;22.39;50.56
50852;BME280;43953;45.508;-122.806;2023-12-07T00:06:36;99941.06;;;22.38;50.70
50852;BME280;43953;45.508;-122.806;2023-12-07T00:07:08;99938.13;;;22.34;50.67
50852;BME280;43953;45.508;-122.806;2023-12-07T00:07:39;99936.00;;;22.31;50.54
50852;BME280;43953;45.508;-122.806;2023-12-07T00:08:11;99940.16;;;22.29;50.73
50852;BME280;43953;45.508;-122.806;2023-12-07T00:08:43;99942.72;;;22.25;50.96
50852;BME280;43953;45.508;-122.806;2023-12-07T00:09:15;99944.13;;;22.22;50.98
50852;BME280;43953;45.508;-122.806;2023-12-07T00:09:47;99944.75;;;22.19;50.91
50852;BME280;43953;45.508;-122.806;2023-12-07T00:10:18;99937.09;;;22.16;51.13
50852;BME280;43953;45.508;-122.806;2023-12-07T00:10:50;99933.03;;;22.14;51.17
50852;BME280;43953;45.508;-122.806;2023-12-07T00:11:22;99938.00;;;22.12;51.13
50852;BME280;43953;45.508;-122.806;2023-12-07T00:11:54;99946.53;;;22.10;51.20
50852;BME280;43953;45.508;-122.806;2023-12-07T00:12:26;99937.50;;;22.10;51.16
50852;BME280;43953;45.508;-122.806;2023-12-07T00:12:58;99945.75;;;22.10;51.28
50852;BME280;43953;45.508;-122.806;2023-12-07T00:13:29;99937.00;;;22.08;51.20
50852;BME280;43953;45.508;-122.806;2023-12-07T00:14:01;99941.69;;;22.07;51.05
50852;BME280;43953;45.508;-122.806;2023-12-07T00:14:33;99940.03;;;22.06;51.26
50852;BME280;43953;45.508;-122.806;2023-12-07T00:15:05;99945.03;;;22.04;51.15
50852;BME280;43953;45.508;-122.806;2023-12-07T00:15:37;99943.09;;;22.04;51.28
50852;BME280;43953;45.508;-122.806;2023-12-07T00:16:09;99950.50;;;22.04;51.38
50852;BME280;43953;45.508;-122.806;2023-12-07T00:16:41;99946.13;;;22.03;51.33
50852;BME280;43953;45.508;-122.806;2023-12-07T00:17:13;99943.38;;;22.03;51.42
50852;BME280;43953;45.508;-122.806;2023-12-07T00:17:45;99943.38;;;22.03;51.38
50852;BME280;43953;45.508;-122.806;2023-12-07T00:18:17;99944.19;;;22.03;51.23
50852;BME280;43953;45.508;-122.806;2023-12-07T00:18:49;99949.19;;;22.01;51.34
50852;BME280;43953;45.508;-122.806;2023-12-07T00:19:20;99944.31;;;21.98;51.23
50852;BME280;43953;45.508;-122.806;2023-12-07T00:19:52;99952.53;;;21.98;51.34
50852;BME280;43953;45.508;-122.806;2023-12-07T00:20:25;99948.47;;;21.96;51.33
50852;BME280;43953;45.508;-122.806;2023-12-07T00:20:56;99948.75;;;21.94;51.26
50852;BME280;43953;45.508;-122.806;2023-12-07T00:21:28;99945.81;;;21.91;51.35
50852;BME280;43953;45.508;-122.806;2023-12-07T00:22:00;99943.06;;;21.91;51.39
50852;BME280;43953;45.508;-122.806;2023-12-07T00:22:32;99944.50;;;21.88;51.47
50852;BME280;43953;45.508;-122.806;2023-12-07T00:23:03;99942.34;;;21.85;51.61
50852;BME280;43953;45.508;-122.806;2023-12-07T00:23:35;99948.16;;;21.84;51.73
50852;BME280;43953;45.508;-122.806;2023-12-07T00:24:08;99953.03;;;21.87;51.67
50852;BME280;43953;45.508;-122.806;2023-12-07T00:24:40;99944.19;;;21.90;51.60
50852;BME280;43953;45.508;-122.806;2023-12-07T00:25:12;99944.91;;;21.95;51.38
50852;BME280;43953;45.508;-122.806;2023-12-07T00:25:43;99947.25;;;22.02;51.19
50852;BME280;43953;45.508;-122.806;2023-12-07T00:26:17;99946.03;;;22.08;51.19
50852;BME280;43953;45.508;-122.806;2023-12-07T00:26:48;99941.78;;;22.16;51.01
50852;BME280;43953;45.508;-122.806;2023-12-07T00:27:20;99941.06;;;22.24;50.83
50852;BME280;43953;45.508;-122.806;2023-12-07T00:27:52;99948.91;;;22.31;50.52
50852;BME280;43953;45.508;-122.806;2023-12-07T00:28:26;99946.66;;;22.33;50.39
50852;BME280;43953;45.508;-122.806;2023-12-07T00:29:01;99949.28;;;22.38;50.28
50852;BME280;43953;45.508;-122.806;2023-12-07T00:29:33;99954.16;;;22.41;50.14
50852;BME280;43953;45.508;-122.806;2023-12-07T00:30:05;99953.38;;;22.40;50.29
50852;BME280;43953;45.508;-122.806;2023-12-07T00:30:37;99953.66;;;22.39;50.24
50852;BME280;43953;45.508;-122.806;2023-12-07T00:31:09;99956.41;;;22.39;50.34
50852;BME280;43953;45.508;-122.806;2023-12-07T00:31:41;99952.03;;;22.38;50.21
50852;BME280;43953;45.508;-122.806;2023-12-07T00:32:15;99953.16;;;22.37;50.36
50852;BME280;43953;45.508;-122.806;2023-12-07T00:32:46;99958.13;;;22.35;50.48
50852;BME280;43953;45.508;-122.806;2023-12-07T00:33:18;99957.63;;;22.33;50.47
50852;BME280;43953;45.508;-122.806;2023-12-07T00:33:52;99958.25;;;22.30;50.64
50852;BME280;43953;45.508;-122.806;2023-12-07T00:34:24;99963.22;;;22.28;50.72
50852;BME280;43953;45.508;-122.806;2023-12-07T00:34:56;99960.78;;;22.26;50.89
50852;BME280;43953;45.508;-122.806;2023-12-07T00:35:28;99961.09;;;22.24;50.59
50852;BME280;43953;45.508;-122.806;2023-12-07T00:36:00;99960.59;;;22.22;50.88
50852;BME280;43953;45.508;-122.806;2023-12-07T00:36:31;99960.38;;;22.19;50.77
50852;BME280;43953;45.508;-122.806;2023-12-07T00:37:03;99957.94;;;22.17;50.87
50852;BME280;43953;45.508;-122.806;2023-12-07T00:37:36;99964.53;;;22.16;50.94
50852;BME280;43953;45.508;-122.806;2023-12-07T00:38:08;99962.38;;;22.13;50.81
50852;BME280;43953;45.508;-122.806;2023-12-07T00:38:39;99961.88;;;22.11;50.91
50852;BME280;43953;45.508;-122.806;2023-12-07T00:39:12;99960.06;;;22.07;50.92
50852;BME280;43953;45.508;-122.806;2023-12-07T00:39:44;99960.06;;;22.07;50.86
50852;BME280;43953;45.508;-122.806;2023-12-07T00:40:16;99968.56;;;22.05;51.13
50852;BME280;43953;45.508;-122.806;2023-12-07T00:40:48;99964.22;;;22.04;51.19
50852;BME280;43953;45.508;-122.806;2023-12-07T00:41:20;99967.75;;;22.04;51.21
50852;BME280;43953;45.508;-122.806;2023-12-07T00:41:52;99964.50;;;22.02;51.05
50852;BME280;43953;45.508;-122.806;2023-12-07T00:42:23;99962.88;;;22.01;51.44
50852;BME280;43953;45.508;-122.806;2023-12-07T00:42:55;99966.72;;;22.00;51.54
50852;BME280;43953;45.508;-122.806;2023-12-07T00:43:29;99967.03;;;21.99;51.39
50852;BME280;43953;45.508;-122.806;2023-12-07T00:44:00;99963.50;;;21.98;51.33
50852;BME280;43953;45.508;-122.806;2023-12-07T00:44:32;99967.34;;;21.97;51.44
50852;BME280;43953;45.508;-122.806;2023-12-07T00:45:04;99961.84;;;21.97;51.55
50852;BME280;43953;45.508;-122.806;2023-12-07T00:45:36;99964.91;;;21.96;51.29
50852;BME280;43953;45.508;-122.806;2023-12-07T00:46:08;99966.84;;;21.95;51.33
50852;BME280;43953;45.508;-122.806;2023-12-07T00:46:40;99963.28;;;21.95;51.19
50852;BME280;43953;45.508;-122.806;2023-12-07T00:47:12;99966.84;;;21.95;51.16
50852;BME280;43953;45.508;-122.806;2023-12-07T00:47:43;99966.84;;;21.95;51.67
50852;BME280;43953;45.508;-122.806;2023-12-07T00:48:15;99972.00;;;21.97;51.33
50852;BME280;43953;45.508;-122.806;2023-12-07T00:48:47;99968.47;;;21.96;51.35
50852;BME280;43953;45.508;-122.806;2023-12-07T00:49:18;99968.78;;;21.95;51.16
50852;BME280;43953;45.508;-122.806;2023-12-07T00:49:50;99966.31;;;21.93;51.15
50852;BME280;43953;45.508;-122.806;2023-12-07T00:50:22;99971.00;;;21.93;51.36
50852;BME280;43953;45.508;-122.806;2023-12-07T00:50:54;99972.13;;;21.92;51.65
50852;BME280;43953;45.508;-122.806;2023-12-07T00:51:25;99975.97;;;21.91;51.28
50852;BME280;43953;45.508;-122.806;2023-12-07T00:51:57;99969.97;;;21.89;51.50
50852;BME280;43953;45.508;-122.806;2023-12-07T00:52:29;99969.75;;;21.85;51.47
50852;BME280;43953;45.508;-122.806;2023-12-07T00:53:01;99975.56;;;21.84;51.69
50852;BME280;43953;45.508;-122.806;2023-12-07T00:53:32;99971.16;;;21.83;51.53
50852;BME280;43953;45.508;-122.806;2023-12-07T00:54:04;99975.84;;;21.82;51.69
50852;BME280;43953;45.508;-122.806;2023-12-07T00:54:36;99969.88;;;21.80;51.63
50852;BME280;43953;45.508;-122.806;2023-12-07T00:55:08;99969.88;;;21.80;51.81
50852;BME280;43953;45.508;-122.806;2023-12-07T00:55:40;99981.13;;;21.78;51.73
50852;BME280;43953;45.508;-122.806;2023-12-07T00:56:11;99974.03;;;21.77;51.56
50852;BME280;43953;45.508;-122.806;2023-12-07T00:56:43;99973.50;;;21.75;51.56
50852;BME280;43953;45.508;-122.806;2023-12-07T00:57:15;99976.25;;;21.75;51.54
50852;BME280;43953;45.508;-122.806;2023-12-07T00:57:47;99972.97;;;21.73;51.62
50852;BME280;43953;45.508;-122.806;2023-12-07T00:58:19;99969.75;;;21.71;51.71
50852;BME280;43953;45.508;-122.806;2023-12-07T00:58:50;99970.56;;;21.72;51.75
50852;BME280;43953;45.508;-122.806;2023-12-07T00:59:22;99977.97;;;21.71;51.74
50852;BME280;43953;45.508;-122.806;2023-12-07T00:59:54;99970.34;;;21.68;51.81
50852;BME280;43953;45.508;-122.806;2023-12-07T01:00:25;99973.09;;;21.68;51.87
50852;BME280;43953;45.508;-122.806;2023-12-07T01:00:57;99977.25;;;21.66;51.78
50852;BME280;43953;45.508;-122.806;2023-12-07T01:01:29;99974.78;;;21.64;51.92
50852;BME280;43953;45.508;-122.806;2023-12-07T01:02:01;99972.38;;;21.63;51.99
50852;BME280;43953;45.508;-122.806;2023-12-07T01:02:32;99970.72;;;21.62;51.88
50852;BME280;43953;45.508;-122.806;2023-12-07T01:03:04;99972.66;;;21.61;52.00
50852;BME280;43953;45.508;-122.806;2023-12-07T01:03:36;99969.38;;;21.59;51.93
50852;BME280;43953;45.508;-122.806;2023-12-07T01:04:11;99970.84;;;21.56;51.80
50852;BME280;43953;45.508;-122.806;2023-12-07T01:04:43;99969.72;;;21.57;51.86
50852;BME280;43953;45.508;-122.806;2023-12-07T01:05:15;99965.63;;;21.55;51.89
50852;BME280;43953;45.508;-122.806;2023-12-07T01:05:47;99967.84;;;21.53;51.55
50852;BME280;43953;45.508;-122.806;2023-12-07T01:06:19;99964.63;;;21.51;51.67
50852;BME280;43953;45.508;-122.806;2023-12-07T01:06:50;99966.03;;;21.48;51.77
50852;BME280;43953;45.508;-122.806;2023-12-07T01:07:22;99970.72;;;21.48;51.61
50852;BME280;43953;45.508;-122.806;2023-12-07T01:07:54;99964.91;;;21.49;51.42
50852;BME280;43953;45.508;-122.806;2023-12-07T01:08:25;99972.72;;;21.56;51.54
50852;BME280;43953;45.508;-122.806;2023-12-07T01:08:57;99966.06;;;21.62;51.30
50852;BME280;43953;45.508;-122.806;2023-12-07T01:09:29;99968.09;;;21.70;51.37
50852;BME280;43953;45.508;-122.806;2023-12-07T01:10:00;99975.63;;;21.78;51.30
50852;BME280;43953;45.508;-122.806;2023-12-07T01:10:32;99971.09;;;21.88;51.14
50852;BME280;43953;45.508;-122.806;2023-12-07T01:11:05;99970.91;;;21.98;50.96
50852;BME280;43953;45.508;-122.806;2023-12-07T01:11:36;99973.25;;;22.04;50.50
50852;BME280;43953;45.508;-122.806;2023-12-07T01:12:08;99972.03;;;22.11;50.40
50852;BME280;43953;45.508;-122.806;2023-12-07T01:12:40;99975.47;;;22.16;50.24
50852;BME280;43953;45.508;-122.806;2023-12-07T01:13:12;99963.63;;;22.21;50.36
50852;BME280;43953;45.508;-122.806;2023-12-07T01:13:43;99967.69;;;22.23;50.20
50852;BME280;43953;45.508;-122.806;2023-12-07T01:14:16;99967.41;;;22.25;50.01
50852;BME280;43953;45.508;-122.806;2023-12-07T01:14:47;99968.19;;;22.25;49.82
50852;BME280;43953;45.508;-122.806;2023-12-07T01:15:19;99965.75;;;22.24;49.66
50852;BME280;43953;45.508;-122.806;2023-12-07T01:15:51;99971.22;;;22.24;49.97
50852;BME280;43953;45.508;-122.806;2023-12-07T01:16:23;99972.06;;;22.24;50.17
50852;BME280;43953;45.508;-122.806;2023-12-07T01:16:56;99970.44;;;22.23;50.38
50852;BME280;43953;45.508;-122.806;2023-12-07T01:17:27;99974.28;;;22.22;50.21
50852;BME280;43953;45.508;-122.806;2023-12-07T01:17:59;99975.91;;;22.23;50.07
50852;BME280;43953;45.508;-122.806;2023-12-07T01:18:31;99971.56;;;22.22;50.21
50852;BME280;43953;45.508;-122.806;2023-12-07T01:19:02;99974.28;;;22.22;50.43
50852;BME280;43953;45.508;-122.806;2023-12-07T01:19:34;99975.41;;;22.21;50.39
50852;BME280;43953;45.508;-122.806;2023-12-07T01:20:06;99977.66;;;22.19;50.33
50852;BME280;43953;45.508;-122.806;2023-12-07T01:20:44;99977.66;;;22.19;50.61
50852;BME280;43953;45.508;-122.806;2023-12-07T01:21:16;99978.44;;;22.20;50.71
50852;BME280;43953;45.508;-122.806;2023-12-07T01:21:47;99979.59;;;22.19;50.70
50852;BME280;43953;45.508;-122.806;2023-12-07T01:22:19;99972.47;;;22.18;51.24
50852;BME280;43953;45.508;-122.806;2023-12-07T01:22:51;99977.94;;;22.18;51.40
50852;BME280;43953;45.508;-122.806;2023-12-07T01:23:23;99978.78;;;22.18;51.34
50852;BME280;43953;45.508;-122.806;2023-12-07T01:23:55;99972.47;;;22.18;51.48
50852;BME280;43953;45.508;-122.806;2023-12-07T01:24:27;99982.63;;;22.17;51.73
50852;BME280;43953;45.508;-122.806;2023-12-07T01:24:59;99980.97;;;22.16;51.54
50852;BME280;43953;45.508;-122.806;2023-12-07T01:25:31;99983.72;;;22.16;51.59
50852;BME280;43953;45.508;-122.806;2023-12-07T01:26:03;99979.31;;;22.15;51.87
50852;BME280;43953;45.508;-122.806;2023-12-07T01:26:34;99982.06;;;22.15;51.41
50852;BME280;43953;45.508;-122.806;2023-12-07T01:27:06;99980.44;;;22.14;51.68
50852;BME280;43953;45.508;-122.806;2023-12-07T01:27:38;99979.66;;;22.14;52.42
50852;BME280;43953;45.508;-122.806;2023-12-07T01:28:10;99984.31;;;22.13;52.27
50852;BME280;43953;45.508;-122.806;2023-12-07T01:28:41;99981.56;;;22.13;51.80
50852;BME280;43953;45.508;-122.806;2023-12-07T01:29:13;99979.94;;;22.12;51.74
50852;BME280;43953;45.508;-122.806;2023-12-07T01:29:49;99979.94;;;22.12;51.83
50852;BME280;43953;45.508;-122.806;2023-12-07T01:30:20;99983.00;;;22.11;51.85
50852;BME280;43953;45.508;-122.806;2023-12-07T01:30:52;99983.81;;;22.11;51.79
50852;BME280;43953;45.508;-122.806;2023-12-07T01:31:24;99987.66;;;22.10;51.95
50852;BME280;43953;45.508;-122.806;2023-12-07T01:31:55;99987.66;;;22.10;51.52
50852;BME280;43953;45.508;-122.806;2023-12-07T01:32:27;99990.41;;;22.10;51.48
50852;BME280;43953;45.508;-122.806;2023-12-07T01:32:59;99988.47;;;22.11;51.33
50852;BME280;43953;45.508;-122.806;2023-12-07T01:33:30;99988.47;;;22.11;51.32
50852;BME280;43953;45.508;-122.806;2023-12-07T01:34:02;99992.34;;;22.10;51.26
50852;BME280;43953;45.508;-122.806;2023-12-07T01:34:34;99986.84;;;22.10;51.28
50852;BME280;43953;45.508;-122.806;2023-12-07T01:35:06;99992.63;;;22.08;51.11
50852;BME280;43953;45.508;-122.806;2023-12-07T01:35:38;99993.44;;;22.09;51.18
50852;BME280;43953;45.508;-122.806;2023-12-07T01:36:10;99993.75;;;22.07;51.15
50852;BME280;43953;45.508;-122.806;2023-12-07T01:36:42;99992.94;;;22.07;50.95
50852;BME280;43953;45.508;-122.806;2023-12-07T01:37:15;99991.31;;;22.06;51.24
50852;BME280;43953;45.508;-122.806;2023-12-07T01:37:47;99988.28;;;22.07;51.51
50852;BME280;43953;45.508;-122.806;2023-12-07T01:38:18;99992.63;;;22.08;51.35
50852;BME280;43953;45.508;-122.806;2023-12-07T01:38:50;99996.19;;;22.09;51.19
50852;BME280;43953;45.508;-122.806;2023-12-07T01:39:22;99989.09;;;22.08;51.17
50852;BME280;43953;45.508;-122.806;2023-12-07T01:39:54;99991.50;;;22.09;51.21
50852;BME280;43953;45.508;-122.806;2023-12-07T01:40:25;99988.75;;;22.09;51.21
50852;BME280;43953;45.508;-122.806;2023-12-07T01:40:57;99994.25;;;22.09;51.36
50852;BME280;43953;45.508;-122.806;2023-12-07T01:41:29;99992.34;;;22.10;51.24
50852;BME280;43953;45.508;-122.806;2023-12-07T01:42:01;99998.63;;;22.10;51.10
50852;BME280;43953;45.508;-122.806;2023-12-07T01:42:32;99984.59;;;22.12;51.47
50852;BME280;43953;45.508;-122.806;2023-12-07T01:43:04;99989.28;;;22.11;51.29
50852;BME280;43953;45.508;-122.806;2023-12-07T01:43:36;99987.06;;;22.13;51.05
50852;BME280;43953;45.508;-122.806;2023-12-07T01:44:07;99988.69;;;22.14;51.92
50852;BME280;43953;45.508;-122.806;2023-12-07T01:44:39;99995.22;;;22.18;51.87
50852;BME280;43953;45.508;-122.806;2023-12-07T01:45:11;99996.22;;;22.22;51.50
50852;BME280;43953;45.508;-122.806;2023-12-07T01:45:43;99994.00;;;22.24;51.03
50852;BME280;43953;45.508;-122.806;2023-12-07T01:46:15;99992.88;;;22.25;51.05
50852;BME280;43953;45.508;-122.806;2023-12-07T01:46:48;99992.88;;;22.25;50.94
50852;BME280;43953;45.508;-122.806;2023-12-07T01:47:20;99995.63;;;22.25;51.65
50852;BME280;43953;45.508;-122.806;2023-12-07T01:47:52;99999.50;;;22.24;50.90
50852;BME280;43953;45.508;-122.806;2023-12-07T01:48:26;99998.03;;;22.27;50.78
50852;BME280;43953;45.508;-122.806;2023-12-07T01:48:58;99989.22;;;22.30;50.62
50852;BME280;43953;45.508;-122.806;2023-12-07T01:49:31;99993.78;;;22.35;50.63
50852;BME280;43953;45.508;-122.806;2023-12-07T01:50:04;99997.25;;;22.40;50.59
50852;BME280;43953;45.508;-122.806;2023-12-07T01:50:36;99991.34;;;22.47;50.40
50852;BME280;43953;45.508;-122.806;2023-12-07T01:51:09;100000.00;;;22.54;50.18
50852;BME280;43953;45.508;-122.806;2023-12-07T01:51:42;100001.19;;;22.62;49.89
50852;BME280;43953;45.508;-122.806;2023-12-07T01:52:14;100001.91;;;22.67;49.70
50852;BME280;43953;45.508;-122.806;2023-12-07T01:52:47;100003.91;;;22.76;49.59
50852;BME280;43953;45.508;-122.806;2023-12-07T01:53:22;100006.56;;;22.81;49.54
50852;BME280;43953;45.508;-122.806;2023-12-07T01:53:54;100005.00;;;22.88;49.27
50852;BME280;43953;45.508;-122.806;2023-12-07T01:54:26;100009.28;;;22.94;49.08
50852;BME280;43953;45.508;-122.806;2023-12-07T01:54:58;100007.56;;;22.99;49.00
50852;BME280;43953;45.508;-122.806;2023-12-07T01:55:32;100011.00;;;23.04;49.01
50852;BME280;43953;45.508;-122.806;2023-12-07T01:56:04;100008.75;;;23.06;48.83
50852;BME280;43953;45.508;-122.806;2023-12-07T01:56:36;100004.91;;;23.07;49.01
50852;BME280;43953;45.508;-122.806;2023-12-07T01:57:08;99998.34;;;23.17;49.37
50852;BME280;43953;45.508;-122.806;2023-12-07T01:57:40;100002.16;;;23.30;49.16
50852;BME280;43953;45.508;-122.806;2023-12-07T01:58:13;100004.47;;;23.36;49.19
50852;BME280;43953;45.508;-122.806;2023-12-07T01:58:45;100010.47;;;23.38;49.30
50852;BME280;43953;45.508;-122.806;2023-12-07T01:59:17;100003.03;;;23.39;49.27
50852;BME280;43953;45.508;-122.806;2023-12-07T01:59:49;100005.78;;;23.39;48.47
50852;BME280;43953;45.508;-122.806;2023-12-07T02:00:21;100004.97;;;23.38;49.12
50852;BME280;43953;45.508;-122.806;2023-12-07T02:00:53;100001.72;;;23.36;48.99
50852;BME280;43953;45.508;-122.806;2023-12-07T02:01:25;100004.16;;;23.38;49.25
50852;BME280;43953;45.508;-122.806;2023-12-07T02:01:57;100008.06;;;23.37;49.17
50852;BME280;43953;45.508;-122.806;2023-12-07T02:02:29;99992.69;;;23.36;49.32
50852;BME280;43953;45.508;-122.806;2023-12-07T02:03:04;100004.28;;;23.33;49.29
50852;BME280;43953;45.508;-122.806;2023-12-07T02:03:39;100002.97;;;23.30;48.94
50852;BME280;43953;45.508;-122.806;2023-12-07T02:04:11;100002.50;;;23.28;49.13
50852;BME280;43953;45.508;-122.806;2023-12-07T02:04:43;100006.66;;;23.26;49.01
50852;BME280;43953;45.508;-122.806;2023-12-07T02:05:15;99996.31;;;23.23;48.90
50852;BME280;43953;45.508;-122.806;2023-12-07T02:05:48;100004.34;;;23.19;48.82
50852;BME280;43953;45.508;-122.806;2023-12-07T02:06:21;100005.28;;;23.14;49.17
50852;BME280;43953;45.508;-122.806;2023-12-07T02:06:54;100000.09;;;23.13;49.27
50852;BME280;43953;45.508;-122.806;2023-12-07T02:07:30;100009.78;;;23.10;49.43
50852;BME280;43953;45.508;-122.806;2023-12-07T02:08:02;100012.00;;;23.08;49.29
50852;BME280;43953;45.508;-122.806;2023-12-07T02:08:34;100018.63;;;23.07;49.33
50852;BME280;43953;45.508;-122.806;2023-12-07T02:09:07;100012.63;;;23.05;49.55
50852;BME280;43953;45.508;-122.806;2023-12-07T02:09:40;100015.38;;;23.05;55.23
50852;BME280;43953;45.508;-122.806;2023-12-07T02:10:12;100012.94;;;23.04;50.30
50852;BME280;43953;45.508;-122.806;2023-12-07T02:10:44;100008.06;;;23.01;49.50
50852;BME280;43953;45.508;-122.806;2023-12-07T02:11:16;100013.06;;;22.99;49.66
50852;BME280;43953;45.508;-122.806;2023-12-07T02:11:49;100016.09;;;22.97;49.90
50852;BME280;43953;45.508;-122.806;2023-12-07T02:12:21;100009.59;;;22.93;50.19
50852;BME280;43953;45.508;-122.806;2023-12-07T02:12:53;100012.31;;;22.93;49.97
50852;BME280;43953;45.508;-122.806;2023-12-07T02:13:25;100004.38;;;22.91;50.31
50852;BME280;43953;45.508;-122.806;2023-12-07T02:13:57;100010.69;;;22.92;50.51
50852;BME280;43953;45.508;-122.806;2023-12-07T02:14:29;100003.91;;;22.89;50.21
50852;BME280;43953;45.508;-122.806;2023-12-07T02:15:04;100016.31;;;22.87;50.12
50852;BME280;43953;45.508;-122.806;2023-12-07T02:15:36;100006.75;;;22.84;49.93
50852;BME280;43953;45.508;-122.806;2023-12-07T02:16:15;100005.09;;;22.83;50.32
50852;BME280;43953;45.508;-122.806;2023-12-07T02:16:57;100003.50;;;22.82;50.55
50852;BME280;43953;45.508;-122.806;2023-12-07T02:18:24;100007.03;;;22.83;50.49
50852;BME280;43953;45.508;-122.806;2023-12-07T02:19:07;100006.44;;;22.86;50.59
50852;BME280;43953;45.508;-122.806;2023-12-07T02:20:44;100004.19;;;22.88;50.31
50852;BME280;43953;45.508;-122.806;2023-12-07T02:21:26;100012.94;;;22.90;49.96
50852;BME280;43953;45.508;-122.806;2023-12-07T02:22:15;100005.81;;;22.89;50.16
50852;BME280;43953;45.508;-122.806;2023-12-07T02:22:53;100006.94;;;22.88;50.16
50852;BME280;43953;45.508;-122.806;2023-12-07T02:23:28;100002.59;;;22.87;50.20
50852;BME280;43953;45.508;-122.806;2023-12-07T02:24:01;100013.06;;;22.85;50.26
50852;BME280;43953;45.508;-122.806;2023-12-07T02:24:34;100004.31;;;22.83;50.38
50852;BME280;43953;45.508;-122.806;2023-12-07T02:25:10;100001.88;;;22.81;50.33
50852;BME280;43953;45.508;-122.806;2023-12-07T02:25:51;100012.06;;;22.81;50.43
50852;BME280;43953;45.508;-122.806;2023-12-07T02:26:35;100004.91;;;22.80;50.38
50852;BME280;43953;45.508;-122.806;2023-12-07T02:27:08;100010.41;;;22.80;50.31
50852;BME280;43953;45.508;-122.806;2023-12-07T02:27:43;100011.53;;;22.79;50.30
50852;BME280;43953;45.508;-122.806;2023-12-07T02:28:18;100006.06;;;22.79;50.26
50852;BME280;43953;45.508;-122.806;2023-12-07T02:28:50;100000.03;;;22.77;50.42
50852;BME280;43953;45.508;-122.806;2023-12-07T02:29:23;100011.03;;;22.77;50.29
50852;BME280;43953;45.508;-122.806;2023-12-07T02:29:55;100009.41;;;22.76;50.45
50852;BME280;43953;45.508;-122.806;2023-12-07T02:30:26;100005.84;;;22.75;50.33
50852;BME280;43953;45.508;-122.806;2023-12-07T02:30:58;100002.31;;;22.75;49.81
50852;BME280;43953;45.508;-122.806;2023-12-07T02:31:30;99999.25;;;22.76;49.81
50852;BME280;43953;45.508;-122.806;2023-12-07T02:32:02;100004.31;;;22.83;49.70
50852;BME280;43953;45.508;-122.806;2023-12-07T02:32:38;100003.06;;;22.89;49.59
50852;BME280;43953;45.508;-122.806;2023-12-07T02:33:11;100008.28;;;23.04;49.35
50852;BME280;43953;45.508;-122.806;2023-12-07T02:33:43;100001.91;;;23.17;48.99
50852;BME280;43953;45.508;-122.806;2023-12-07T02:34:15;100002.16;;;23.30;48.81
50852;BME280;43953;45.508;-122.806;2023-12-07T02:34:46;100007.59;;;23.44;48.47
50852;BME280;43953;45.508;-122.806;2023-12-07T02:35:18;100009.00;;;23.55;47.95
50852;BME280;43953;45.508;-122.806;2023-12-07T02:35:51;100012.91;;;23.62;47.66
50852;BME280;43953;45.508;-122.806;2023-12-07T02:36:24;100008.91;;;23.69;47.73
50852;BME280;43953;45.508;-122.806;2023-12-07T02:37:00;100009.94;;;23.73;47.59
50852;BME280;43953;45.508;-122.806;2023-12-07T02:37:49;100011.72;;;23.77;47.50
50852;BME280;43953;45.508;-122.806;2023-12-07T02:38:22;100011.72;;;23.77;47.49
50852;BME280;43953;45.508;-122.806;2023-12-07T02:38:58;100004.28;;;23.78;47.53
50852;BME280;43953;45.508;-122.806;2023-12-07T02:39:32;100004.28;;;23.78;47.39
50852;BME280;43953;45.508;-122.806;2023-12-07T02:40:06;100010.13;;;23.76;47.32
50852;BME280;43953;45.508;-122.806;2023-12-07T02:40:42;100008.81;;;23.74;47.43
50852;BME280;43953;45.508;-122.806;2023-12-07T02:41:17;100011.38;;;23.70;47.53
50852;BME280;43953;45.508;-122.806;2023-12-07T02:41:49;100001.78;;;23.68;47.58
50852;BME280;43953;45.508;-122.806;2023-12-07T02:42:22;100007.91;;;23.65;47.50
50852;BME280;43953;45.508;-122.806;2023-12-07T02:42:54;100014.84;;;23.62;47.62
50852;BME280;43953;45.508;-122.806;2023-12-07T02:43:27;100009.97;;;23.59;47.84
50852;BME280;43953;45.508;-122.806;2023-12-07T02:43:59;100012.53;;;23.55;47.75
50852;BME280;43953;45.508;-122.806;2023-12-07T02:44:31;100015.09;;;23.52;47.89
50852;BME280;43953;45.508;-122.806;2023-12-07T02:45:04;100015.72;;;23.49;47.99
50852;BME280;43953;45.508;-122.806;2023-12-07T02:45:36;100016.66;;;23.44;47.94
50852;BME280;43953;45.508;-122.806;2023-12-07T02:46:08;100015.34;;;23.42;48.04
50852;BME280;43953;45.508;-122.806;2023-12-07T02:46:40;100010.47;;;23.38;48.17
50852;BME280;43953;45.508;-122.806;2023-12-07T02:47:11;100015.78;;;23.35;48.38